This is the latest recevied weather packets stored in our database for station/object KD6VPH. If no packets are shown the sender has not sent any weather packets the latest 10 day(s).
| Time | Temp. | Humidity | Pressure | Rain* | Wind** | Luminosity | Snow |
|---|---|---|---|---|---|---|---|
| 1777064149 | 18.33° C | 43% | 1016.5 hPa | 0 mm | - | 1303 W/m² | - |
| 1777063549 | 18.33° C | 40% | 1016.5 hPa | 0 mm | - | 1306 W/m² | - |
| 1777062949 | 18.33° C | 42% | 1016.5 hPa | 0 mm | - | 1301 W/m² | - |
| 1777062349 | 18.33° C | 38% | 1016.9 hPa | 0 mm | - | 1303 W/m² | - |
| 1777061149 | 17.78° C | 45% | 1017 hPa | 0 mm | - | 1296 W/m² | - |
| 1777059949 | 17.22° C | 56% | 1017.2 hPa | 0 mm | - | 1269 W/m² | - |
| 1777059349 | 16.67° C | 59% | 1017.5 hPa | 0 mm | - | 1238 W/m² | - |
| 1777058749 | 16.67° C | 60% | 1017.5 hPa | 0 mm | - | 1199 W/m² | - |
| 1777056349 | 15.56° C | 65% | 1017.6 hPa | 0 mm | - | 1118 W/m² | - |
| 1777055749 | 15° C | 65% | 1018 hPa | 0 mm | - | 1090 W/m² | - |
| 1777055149 | 15° C | 67% | 1018 hPa | 0 mm | - | 1106 W/m² | - |
| 1777054582 | 14.44° C | 67% | 1018.1 hPa | 0 mm | - | 1037 W/m² | - |
| 1777054549 | 14.44° C | 67% | 1018.1 hPa | 0 mm | - | 1037 W/m² | - |
| 1777053949 | 13.89° C | 71% | 1018.1 hPa | 0 mm | - | 988 W/m² | - |
| 1777053349 | 13.33° C | 74% | 1018.1 hPa | 0 mm | - | 916 W/m² | - |
| 1777052749 | 12.78° C | 75% | 1018.2 hPa | 0 mm | - | 483 W/m² | - |
| 1777052149 | 12.22° C | 78% | 1018.2 hPa | 0 mm | - | 132 W/m² | - |
| 1777051549 | 11.67° C | 80% | 1018.1 hPa | 0 mm | - | 271 W/m² | - |
| 1777050949 | 11.11° C | 81% | 1018.2 hPa | 0 mm | - | 186 W/m² | - |
| 1777050349 | 10.56° C | 84% | 1018.1 hPa | 0 mm | - | 158 W/m² | - |
| 1777048550 | 8.33° C | 91% | 1018.7 hPa | 0 mm | - | 206 W/m² | - |
| 1777047350 | 7.78° C | 91% | 1019.1 hPa | 0 mm | - | 130 W/m² | - |
| 1777046749 | 7.78° C | 91% | 1019.2 hPa | 0 mm | - | 128 W/m² | - |
| 1777046150 | 7.78° C | 92% | 1019.1 hPa | 0 mm | - | 146 W/m² | - |
| 1777045550 | 7.22° C | 92% | 1019.2 hPa | 0 mm | - | 160 W/m² | - |
* Rain latest hour (hover to see other rain measurements)
** Current wind speed in m/s (hover to see current wind gust speed)